sensor_id;sensor_type;location;lat;lon;timestamp;pressure;altitude;pressure_sealevel;temperature;humidity
30598;BME280;17365;48.878;8.334;2023-09-19T00:00:36;99661.28;;;18.06;99.84
30598;BME280;17365;48.878;8.334;2023-09-19T00:03:01;99662.59;;;18.18;98.83
30598;BME280;17365;48.878;8.334;2023-09-19T00:05:27;99670.69;;;18.12;98.76
30598;BME280;17365;48.878;8.334;2023-09-19T00:07:53;99669.56;;;18.19;98.21
30598;BME280;17365;48.878;8.334;2023-09-19T00:10:24;99664.25;;;18.20;98.08
30598;BME280;17365;48.878;8.334;2023-09-19T00:12:58;99675.53;;;18.22;98.02
30598;BME280;17365;48.878;8.334;2023-09-19T00:15:30;99671.38;;;18.17;97.79
30598;BME280;17365;48.878;8.334;2023-09-19T00:17:55;99671.44;;;18.15;98.56
30598;BME280;17365;48.878;8.334;2023-09-19T00:20:21;99678.69;;;18.09;98.98
30598;BME280;17365;48.878;8.334;2023-09-19T00:22:48;99664.22;;;17.97;99.82
30598;BME280;17365;48.878;8.334;2023-09-19T00:25:14;99672.84;;;18.00;100.00
30598;BME280;17365;48.878;8.334;2023-09-19T00:27:40;99668.28;;;18.06;99.70
30598;BME280;17365;48.878;8.334;2023-09-19T00:30:11;99676.16;;;18.06;100.00
30598;BME280;17365;48.878;8.334;2023-09-19T00:32:44;99673.00;;;17.96;100.00
30598;BME280;17365;48.878;8.334;2023-09-19T00:35:12;99666.72;;;18.00;100.00
30598;BME280;17365;48.878;8.334;2023-09-19T00:37:37;99676.28;;;18.02;100.00
30598;BME280;17365;48.878;8.334;2023-09-19T00:40:03;99675.13;;;18.10;99.87
30598;BME280;17365;48.878;8.334;2023-09-19T00:42:30;99665.88;;;17.99;100.00
30598;BME280;17365;48.878;8.334;2023-09-19T00:44:55;99677.19;;;18.01;100.00
30598;BME280;17365;48.878;8.334;2023-09-19T00:47:21;99670.13;;;18.03;100.00
30598;BME280;17365;48.878;8.334;2023-09-19T00:49:46;99676.38;;;17.99;99.49
30598;BME280;17365;48.878;8.334;2023-09-19T00:52:14;99684.09;;;18.04;98.78
30598;BME280;17365;48.878;8.334;2023-09-19T00:54:39;99681.25;;;18.10;98.32
30598;BME280;17365;48.878;8.334;2023-09-19T00:57:05;99685.75;;;18.07;98.32
30598;BME280;17365;48.878;8.334;2023-09-19T00:59:31;99685.56;;;18.13;97.33
30598;BME280;17365;48.878;8.334;2023-09-19T01:01:56;99690.81;;;18.13;97.29
30598;BME280;17365;48.878;8.334;2023-09-19T01:04:22;99686.50;;;18.10;97.33
30598;BME280;17365;48.878;8.334;2023-09-19T01:06:47;99685.75;;;18.07;97.25
30598;BME280;17365;48.878;8.334;2023-09-19T01:09:17;99699.13;;;17.99;96.62
30598;BME280;17365;48.878;8.334;2023-09-19T01:11:43;99687.91;;;17.95;96.80
30598;BME280;17365;48.878;8.334;2023-09-19T01:14:15;99709.59;;;18.00;97.17
30598;BME280;17365;48.878;8.334;2023-09-19T01:16:50;99704.31;;;18.02;96.64
30598;BME280;17365;48.878;8.334;2023-09-19T01:22:26;99712.84;;;18.07;95.97
30598;BME280;17365;48.878;8.334;2023-09-19T01:29:48;99715.53;;;18.30;94.22
30598;BME280;17365;48.878;8.334;2023-09-19T01:32:15;99721.50;;;18.34;93.54
30598;BME280;17365;48.878;8.334;2023-09-19T01:34:56;99719.53;;;18.41;92.85
30598;BME280;17365;48.878;8.334;2023-09-19T01:37:29;99726.44;;;18.43;92.88
30598;BME280;17365;48.878;8.334;2023-09-19T01:40:02;99717.16;;;18.58;92.49
30598;BME280;17365;48.878;8.334;2023-09-19T01:42:44;99718.28;;;18.51;92.18
30598;BME280;17365;48.878;8.334;2023-09-19T01:45:12;99732.00;;;18.59;92.83
30598;BME280;17365;48.878;8.334;2023-09-19T01:47:54;99726.09;;;18.52;93.44
30598;BME280;17365;48.878;8.334;2023-09-19T01:53:07;99731.81;;;18.40;94.84
30598;BME280;17365;48.878;8.334;2023-09-19T01:55:37;99730.63;;;18.49;94.88
30598;BME280;17365;48.878;8.334;2023-09-19T01:58:31;99726.56;;;18.40;96.29
30598;BME280;17365;48.878;8.334;2023-09-19T02:00:53;99738.88;;;18.38;96.61
30598;BME280;17365;48.878;8.334;2023-09-19T02:03:20;99745.50;;;18.25;97.88
30598;BME280;17365;48.878;8.334;2023-09-19T02:05:50;99738.84;;;18.40;96.96
30598;BME280;17365;48.878;8.334;2023-09-19T02:08:17;99746.97;;;18.32;97.92
30598;BME280;17365;48.878;8.334;2023-09-19T02:10:43;99740.72;;;18.36;97.09
30598;BME280;17365;48.878;8.334;2023-09-19T02:13:11;99735.78;;;18.27;98.02
30598;BME280;17365;48.878;8.334;2023-09-19T02:15:36;99739.41;;;18.23;98.91
30598;BME280;17365;48.878;8.334;2023-09-19T02:18:03;99746.28;;;18.27;98.67
30598;BME280;17365;48.878;8.334;2023-09-19T02:20:28;99742.94;;;18.23;98.69
30598;BME280;17365;48.878;8.334;2023-09-19T02:22:53;99752.13;;;18.10;99.97
30598;BME280;17365;48.878;8.334;2023-09-19T02:25:18;99749.34;;;18.15;99.03
30598;BME280;17365;48.878;8.334;2023-09-19T02:27:44;99764.38;;;18.10;99.51
30598;BME280;17365;48.878;8.334;2023-09-19T02:30:10;99771.16;;;18.17;99.95
30598;BME280;17365;48.878;8.334;2023-09-19T02:32:35;99766.44;;;18.26;99.25
30598;BME280;17365;48.878;8.334;2023-09-19T02:35:03;99767.13;;;18.31;98.90
30598;BME280;17365;48.878;8.334;2023-09-19T02:37:29;99769.06;;;18.26;99.70
30598;BME280;17365;48.878;8.334;2023-09-19T02:39:54;99765.00;;;18.18;100.00
30598;BME280;17365;48.878;8.334;2023-09-19T02:42:21;99765.03;;;18.16;100.00
30598;BME280;17365;48.878;8.334;2023-09-19T02:44:46;99764.06;;;18.19;100.00
30598;BME280;17365;48.878;8.334;2023-09-19T02:47:13;99763.59;;;18.08;100.00
30598;BME280;17365;48.878;8.334;2023-09-19T02:49:40;99766.06;;;18.12;100.00
30598;BME280;17365;48.878;8.334;2023-09-19T02:52:05;99770.13;;;18.21;100.00
30598;BME280;17365;48.878;8.334;2023-09-19T02:54:32;99770.63;;;18.07;100.00
30598;BME280;17365;48.878;8.334;2023-09-19T02:56:57;99766.03;;;18.14;100.00
30598;BME280;17365;48.878;8.334;2023-09-19T02:59:23;99779.03;;;18.17;100.00
30598;BME280;17365;48.878;8.334;2023-09-19T03:01:49;99782.72;;;18.11;100.00
30598;BME280;17365;48.878;8.334;2023-09-19T03:04:15;99790.34;;;18.19;100.00
30598;BME280;17365;48.878;8.334;2023-09-19T03:06:44;99797.03;;;18.27;100.00
30598;BME280;17365;48.878;8.334;2023-09-19T03:09:09;99795.59;;;18.19;100.00
30598;BME280;17365;48.878;8.334;2023-09-19T03:11:39;99800.03;;;18.17;100.00
30598;BME280;17365;48.878;8.334;2023-09-19T03:14:05;99801.50;;;18.25;100.00
30598;BME280;17365;48.878;8.334;2023-09-19T03:16:30;99799.44;;;18.09;100.00
30598;BME280;17365;48.878;8.334;2023-09-19T03:18:55;99802.00;;;18.10;100.00
30598;BME280;17365;48.878;8.334;2023-09-19T03:21:21;99792.47;;;18.08;100.00
30598;BME280;17365;48.878;8.334;2023-09-19T03:23:46;99798.53;;;18.10;100.00
30598;BME280;17365;48.878;8.334;2023-09-19T03:26:12;99805.84;;;18.00;100.00
30598;BME280;17365;48.878;8.334;2023-09-19T03:28:38;99799.53;;;18.06;100.00
30598;BME280;17365;48.878;8.334;2023-09-19T03:31:06;99796.72;;;17.85;100.00
30598;BME280;17365;48.878;8.334;2023-09-19T03:33:31;99797.00;;;17.76;100.00
30598;BME280;17365;48.878;8.334;2023-09-19T03:35:58;99785.69;;;18.00;100.00
30598;BME280;17365;48.878;8.334;2023-09-19T03:38:24;99795.34;;;17.73;100.00
30598;BME280;17365;48.878;8.334;2023-09-19T03:40:49;99794.56;;;17.71;100.00
30598;BME280;17365;48.878;8.334;2023-09-19T03:43:14;99791.13;;;17.69;100.00
30598;BME280;17365;48.878;8.334;2023-09-19T03:45:39;99795.66;;;17.63;100.00
30598;BME280;17365;48.878;8.334;2023-09-19T03:48:08;99790.31;;;17.66;100.00
30598;BME280;17365;48.878;8.334;2023-09-19T03:50:33;99794.81;;;17.62;100.00
30598;BME280;17365;48.878;8.334;2023-09-19T03:52:58;99801.88;;;17.60;100.00
30598;BME280;17365;48.878;8.334;2023-09-19T03:55:24;99801.47;;;17.74;100.00
30598;BME280;17365;48.878;8.334;2023-09-19T03:57:49;99802.56;;;17.67;100.00
30598;BME280;17365;48.878;8.334;2023-09-19T04:00:15;99804.88;;;17.48;100.00
30598;BME280;17365;48.878;8.334;2023-09-19T04:02:43;99807.69;;;17.42;100.00
30598;BME280;17365;48.878;8.334;2023-09-19T04:05:08;99806.94;;;17.38;100.00
30598;BME280;17365;48.878;8.334;2023-09-19T04:07:35;99807.47;;;17.50;100.00
30598;BME280;17365;48.878;8.334;2023-09-19T04:10:00;99806.41;;;17.27;100.00
30598;BME280;17365;48.878;8.334;2023-09-19T04:12:26;99808.00;;;17.33;100.00
30598;BME280;17365;48.878;8.334;2023-09-19T04:14:51;99813.63;;;17.49;100.00
30598;BME280;17365;48.878;8.334;2023-09-19T04:17:16;99818.13;;;17.43;100.00
30598;BME280;17365;48.878;8.334;2023-09-19T04:19:42;99821.59;;;17.44;100.00
30598;BME280;17365;48.878;8.334;2023-09-19T04:22:07;99825.19;;;17.41;100.00
30598;BME280;17365;48.878;8.334;2023-09-19T04:24:32;99831.91;;;17.22;100.00
30598;BME280;17365;48.878;8.334;2023-09-19T04:26:57;99837.09;;;17.24;100.00
30598;BME280;17365;48.878;8.334;2023-09-19T04:29:24;99851.44;;;17.12;100.00
30598;BME280;17365;48.878;8.334;2023-09-19T04:31:51;99848.56;;;17.20;100.00
30598;BME280;17365;48.878;8.334;2023-09-19T04:34:17;99853.69;;;17.24;100.00
30598;BME280;17365;48.878;8.334;2023-09-19T04:36:42;99856.31;;;17.24;100.00
30598;BME280;17365;48.878;8.334;2023-09-19T04:39:08;99861.19;;;17.36;100.00
30598;BME280;17365;48.878;8.334;2023-09-19T04:41:33;99864.09;;;17.27;100.00
30598;BME280;17365;48.878;8.334;2023-09-19T04:43:59;99865.31;;;17.43;100.00
30598;BME280;17365;48.878;8.334;2023-09-19T04:46:24;99860.06;;;17.15;100.00
30598;BME280;17365;48.878;8.334;2023-09-19T04:48:49;99856.75;;;17.38;100.00
30598;BME280;17365;48.878;8.334;2023-09-19T04:51:14;99859.91;;;17.20;100.00
30598;BME280;17365;48.878;8.334;2023-09-19T04:53:40;99867.13;;;17.13;100.00
30598;BME280;17365;48.878;8.334;2023-09-19T04:56:06;99866.09;;;17.17;100.00
30598;BME280;17365;48.878;8.334;2023-09-19T04:58:32;99870.41;;;17.20;100.00
30598;BME280;17365;48.878;8.334;2023-09-19T05:00:58;99870.75;;;17.08;100.00
30598;BME280;17365;48.878;8.334;2023-09-19T05:03:24;99878.19;;;16.92;100.00
30598;BME280;17365;48.878;8.334;2023-09-19T05:05:49;99886.81;;;16.96;100.00
30598;BME280;17365;48.878;8.334;2023-09-19T05:08:15;99893.59;;;16.72;100.00
30598;BME280;17365;48.878;8.334;2023-09-19T05:10:40;99892.66;;;16.74;100.00
30598;BME280;17365;48.878;8.334;2023-09-19T05:13:05;99892.41;;;16.83;100.00
30598;BME280;17365;48.878;8.334;2023-09-19T05:15:32;99899.25;;;16.89;100.00
30598;BME280;17365;48.878;8.334;2023-09-19T05:17:58;99901.97;;;16.84;100.00
30598;BME280;17365;48.878;8.334;2023-09-19T05:20:23;99906.47;;;16.81;100.00
30598;BME280;17365;48.878;8.334;2023-09-19T05:23:03;99914.44;;;16.76;100.00
30598;BME280;17365;48.878;8.334;2023-09-19T05:25:32;99923.31;;;16.71;100.00
30598;BME280;17365;48.878;8.334;2023-09-19T05:27:58;99930.81;;;16.84;100.00
30598;BME280;17365;48.878;8.334;2023-09-19T05:30:24;99926.47;;;16.83;100.00
30598;BME280;17365;48.878;8.334;2023-09-19T05:32:49;99922.38;;;16.73;100.00
30598;BME280;17365;48.878;8.334;2023-09-19T05:35:16;99924.03;;;16.76;100.00
30598;BME280;17365;48.878;8.334;2023-09-19T05:37:41;99931.03;;;16.77;100.00
30598;BME280;17365;48.878;8.334;2023-09-19T05:40:06;99940.91;;;16.66;100.00
30598;BME280;17365;48.878;8.334;2023-09-19T05:42:32;99924.31;;;16.65;100.00
30598;BME280;17365;48.878;8.334;2023-09-19T05:44:57;99943.41;;;16.70;100.00
30598;BME280;17365;48.878;8.334;2023-09-19T05:47:23;99938.94;;;16.74;100.00
30598;BME280;17365;48.878;8.334;2023-09-19T05:49:50;99937.75;;;16.85;100.00
30598;BME280;17365;48.878;8.334;2023-09-19T05:52:15;99944.94;;;16.79;100.00
30598;BME280;17365;48.878;8.334;2023-09-19T05:54:42;99942.81;;;16.93;100.00
30598;BME280;17365;48.878;8.334;2023-09-19T05:57:07;99947.28;;;16.90;100.00
30598;BME280;17365;48.878;8.334;2023-09-19T05:59:33;99951.28;;;17.03;100.00
30598;BME280;17365;48.878;8.334;2023-09-19T06:01:59;99944.91;;;16.80;100.00
30598;BME280;17365;48.878;8.334;2023-09-19T06:04:24;99947.38;;;16.85;100.00
30598;BME280;17365;48.878;8.334;2023-09-19T06:06:50;99949.41;;;16.74;100.00
30598;BME280;17365;48.878;8.334;2023-09-19T06:09:16;99958.09;;;16.76;100.00
30598;BME280;17365;48.878;8.334;2023-09-19T06:11:42;99956.31;;;16.78;100.00
30598;BME280;17365;48.878;8.334;2023-09-19T06:14:07;99962.66;;;17.02;100.00
30598;BME280;17365;48.878;8.334;2023-09-19T06:16:32;99963.00;;;16.90;100.00
30598;BME280;17365;48.878;8.334;2023-09-19T06:18:58;99966.66;;;16.82;100.00
30598;BME280;17365;48.878;8.334;2023-09-19T06:21:25;99966.44;;;16.92;100.00
30598;BME280;17365;48.878;8.334;2023-09-19T06:23:51;99974.53;;;16.82;100.00
30598;BME280;17365;48.878;8.334;2023-09-19T06:26:17;99975.34;;;16.84;100.00
30598;BME280;17365;48.878;8.334;2023-09-19T06:28:42;99962.25;;;16.84;100.00
30598;BME280;17365;48.878;8.334;2023-09-19T06:31:07;99968.28;;;16.86;100.00
30598;BME280;17365;48.878;8.334;2023-09-19T06:33:35;99968.84;;;16.65;100.00
30598;BME280;17365;48.878;8.334;2023-09-19T06:36:03;99962.47;;;16.77;100.00
30598;BME280;17365;48.878;8.334;2023-09-19T06:38:29;99965.69;;;16.86;100.00
30598;BME280;17365;48.878;8.334;2023-09-19T06:40:55;99959.25;;;17.00;100.00
30598;BME280;17365;48.878;8.334;2023-09-19T06:43:20;99966.25;;;16.99;100.00
30598;BME280;17365;48.878;8.334;2023-09-19T06:45:45;99969.16;;;17.20;100.00
30598;BME280;17365;48.878;8.334;2023-09-19T06:48:10;99968.53;;;17.10;100.00
30598;BME280;17365;48.878;8.334;2023-09-19T06:50:37;99974.41;;;17.20;100.00
30598;BME280;17365;48.878;8.334;2023-09-19T06:53:03;99976.38;;;17.42;100.00
30598;BME280;17365;48.878;8.334;2023-09-19T06:55:28;99981.56;;;17.45;100.00
30598;BME280;17365;48.878;8.334;2023-09-19T06:57:56;99979.13;;;17.70;100.00
30598;BME280;17365;48.878;8.334;2023-09-19T07:00:21;99987.91;;;17.68;100.00
30598;BME280;17365;48.878;8.334;2023-09-19T07:02:58;99986.41;;;17.89;100.00
30598;BME280;17365;48.878;8.334;2023-09-19T07:05:25;99985.13;;;18.03;100.00
30598;BME280;17365;48.878;8.334;2023-09-19T07:07:52;99987.91;;;17.97;100.00
30598;BME280;17365;48.878;8.334;2023-09-19T07:10:19;99992.81;;;17.80;100.00
30598;BME280;17365;48.878;8.334;2023-09-19T07:12:45;99985.38;;;18.22;100.00
30598;BME280;17365;48.878;8.334;2023-09-19T07:15:10;99980.16;;;18.49;100.00
30598;BME280;17365;48.878;8.334;2023-09-19T07:17:35;99986.47;;;18.71;100.00
30598;BME280;17365;48.878;8.334;2023-09-19T07:20:01;99988.06;;;18.49;100.00
30598;BME280;17365;48.878;8.334;2023-09-19T07:22:32;99993.19;;;18.52;100.00
30598;BME280;17365;48.878;8.334;2023-09-19T07:24:57;99987.50;;;18.66;100.00
30598;BME280;17365;48.878;8.334;2023-09-19T07:27:22;99993.16;;;18.80;100.00
30598;BME280;17365;48.878;8.334;2023-09-19T07:29:48;99990.88;;;18.71;100.00
30598;BME280;17365;48.878;8.334;2023-09-19T07:32:13;100002.06;;;18.76;100.00
30598;BME280;17365;48.878;8.334;2023-09-19T07:34:39;100001.25;;;18.74;100.00
30598;BME280;17365;48.878;8.334;2023-09-19T07:37:05;99998.97;;;18.89;100.00
30598;BME280;17365;48.878;8.334;2023-09-19T07:39:31;99998.03;;;18.92;100.00
30598;BME280;17365;48.878;8.334;2023-09-19T07:41:56;99998.53;;;19.03;100.00
30598;BME280;17365;48.878;8.334;2023-09-19T07:44:22;100006.16;;;19.34;100.00
30598;BME280;17365;48.878;8.334;2023-09-19T07:46:47;100006.28;;;19.31;100.00
30598;BME280;17365;48.878;8.334;2023-09-19T07:49:15;100014.97;;;19.58;99.28
30598;BME280;17365;48.878;8.334;2023-09-19T07:51:42;100009.53;;;19.14;98.02
30598;BME280;17365;48.878;8.334;2023-09-19T07:54:11;100010.88;;;19.25;97.63
30598;BME280;17365;48.878;8.334;2023-09-19T07:56:36;100010.34;;;19.40;97.76
30598;BME280;17365;48.878;8.334;2023-09-19T07:59:02;100016.06;;;19.28;97.74
30598;BME280;17365;48.878;8.334;2023-09-19T08:01:27;100022.22;;;19.02;98.64
30598;BME280;17365;48.878;8.334;2023-09-19T08:03:53;100027.75;;;19.19;98.33
30598;BME280;17365;48.878;8.334;2023-09-19T08:06:18;100032.66;;;19.30;97.59
30598;BME280;17365;48.878;8.334;2023-09-19T08:08:45;100032.38;;;19.37;97.63
30598;BME280;17365;48.878;8.334;2023-09-19T08:11:10;100037.38;;;19.20;99.22
30598;BME280;17365;48.878;8.334;2023-09-19T08:13:37;100038.16;;;19.22;98.15
30598;BME280;17365;48.878;8.334;2023-09-19T08:16:06;100037.59;;;19.39;97.60
30598;BME280;17365;48.878;8.334;2023-09-19T08:18:31;100031.47;;;19.38;96.92
30598;BME280;17365;48.878;8.334;2023-09-19T08:20:56;100040.50;;;19.56;96.73
30598;BME280;17365;48.878;8.334;2023-09-19T08:23:23;100046.81;;;19.26;98.39
30598;BME280;17365;48.878;8.334;2023-09-19T08:25:48;100048.31;;;19.33;98.32
30598;BME280;17365;48.878;8.334;2023-09-19T08:28:14;100049.38;;;18.76;99.97
30598;BME280;17365;48.878;8.334;2023-09-19T08:30:44;100054.91;;;19.19;98.72
30598;BME280;17365;48.878;8.334;2023-09-19T08:33:09;100039.19;;;19.43;96.30
30598;BME280;17365;48.878;8.334;2023-09-19T08:35:35;100044.19;;;19.26;92.93
30598;BME280;17365;48.878;8.334;2023-09-19T08:38:01;100049.72;;;19.18;91.36
30598;BME280;17365;48.878;8.334;2023-09-19T08:40:29;100058.50;;;19.17;90.82
30598;BME280;17365;48.878;8.334;2023-09-19T08:42:58;100058.03;;;19.31;90.15
30598;BME280;17365;48.878;8.334;2023-09-19T08:45:24;100056.81;;;19.41;89.06
30598;BME280;17365;48.878;8.334;2023-09-19T08:50:33;100059.22;;;19.72;88.13
30598;BME280;17365;48.878;8.334;2023-09-19T08:53:02;100056.41;;;20.23;85.14
30598;BME280;17365;48.878;8.334;2023-09-19T08:55:34;100055.81;;;20.39;83.67
30598;BME280;17365;48.878;8.334;2023-09-19T08:58:03;100047.31;;;20.54;82.41
30598;BME280;17365;48.878;8.334;2023-09-19T09:00:29;100049.53;;;20.43;82.57
30598;BME280;17365;48.878;8.334;2023-09-19T09:02:55;100048.25;;;20.53;81.27
30598;BME280;17365;48.878;8.334;2023-09-19T09:05:21;100050.09;;;20.27;79.80
30598;BME280;17365;48.878;8.334;2023-09-19T09:07:48;100042.75;;;20.35;79.54
30598;BME280;17365;48.878;8.334;2023-09-19T09:10:15;100047.97;;;20.59;77.14
30598;BME280;17365;48.878;8.334;2023-09-19T09:12:41;100040.34;;;20.53;76.17
30598;BME280;17365;48.878;8.334;2023-09-19T09:15:08;100045.25;;;20.62;77.50
30598;BME280;17365;48.878;8.334;2023-09-19T09:17:36;100056.06;;;20.76;78.15
30598;BME280;17365;48.878;8.334;2023-09-19T09:20:02;100049.97;;;20.54;74.86
30598;BME280;17365;48.878;8.334;2023-09-19T09:22:28;100059.00;;;20.69;74.85
30598;BME280;17365;48.878;8.334;2023-09-19T09:24:57;100056.28;;;20.92;75.20
30598;BME280;17365;48.878;8.334;2023-09-19T09:27:30;100055.47;;;20.70;73.81
30598;BME280;17365;48.878;8.334;2023-09-19T09:29:56;100049.69;;;20.60;75.08
30598;BME280;17365;48.878;8.334;2023-09-19T09:32:22;100048.78;;;20.39;74.52
30598;BME280;17365;48.878;8.334;2023-09-19T09:34:54;100051.13;;;20.23;75.52
30598;BME280;17365;48.878;8.334;2023-09-19T09:37:20;100045.41;;;20.12;74.24
30598;BME280;17365;48.878;8.334;2023-09-19T09:39:53;100050.47;;;19.95;70.92
30598;BME280;17365;48.878;8.334;2023-09-19T09:42:30;100053.59;;;20.28;68.02
30598;BME280;17365;48.878;8.334;2023-09-19T09:45:13;100046.28;;;20.58;66.26
30598;BME280;17365;48.878;8.334;2023-09-19T09:47:42;100044.75;;;20.74;63.09
30598;BME280;17365;48.878;8.334;2023-09-19T09:50:07;100044.38;;;20.38;63.77
30598;BME280;17365;48.878;8.334;2023-09-19T09:52:45;100044.41;;;20.82;62.96
30598;BME280;17365;48.878;8.334;2023-09-19T09:55:11;100043.34;;;21.08;61.97
30598;BME280;17365;48.878;8.334;2023-09-19T09:57:37;100042.88;;;21.39;61.12
30598;BME280;17365;48.878;8.334;2023-09-19T10:00:06;100037.63;;;21.97;61.76
30598;BME280;17365;48.878;8.334;2023-09-19T10:02:37;100042.75;;;21.21;60.20
30598;BME280;17365;48.878;8.334;2023-09-19T10:07:45;100047.75;;;21.68;62.36
30598;BME280;17365;48.878;8.334;2023-09-19T10:10:37;100048.75;;;21.66;62.42
30598;BME280;17365;48.878;8.334;2023-09-19T10:13:23;100049.75;;;21.82;61.72
30598;BME280;17365;48.878;8.334;2023-09-19T10:15:52;100047.97;;;22.22;57.77
30598;BME280;17365;48.878;8.334;2023-09-19T10:18:23;100042.16;;;22.14;57.61
30598;BME280;17365;48.878;8.334;2023-09-19T10:20:49;100049.16;;;22.33;56.41
30598;BME280;17365;48.878;8.334;2023-09-19T10:23:16;100053.66;;;21.73;57.99
30598;BME280;17365;48.878;8.334;2023-09-19T10:25:47;100050.97;;;21.94;57.12
30598;BME280;17365;48.878;8.334;2023-09-19T10:28:13;100049.69;;;21.84;57.99
30598;BME280;17365;48.878;8.334;2023-09-19T10:30:45;100055.97;;;21.81;58.89
30598;BME280;17365;48.878;8.334;2023-09-19T10:33:12;100060.78;;;21.32;58.96
30598;BME280;17365;48.878;8.334;2023-09-19T10:35:39;100046.00;;;21.88;58.38
30598;BME280;17365;48.878;8.334;2023-09-19T10:38:07;100047.50;;;21.54;58.74
30598;BME280;17365;48.878;8.334;2023-09-19T10:40:34;100046.38;;;21.39;58.42
30598;BME280;17365;48.878;8.334;2023-09-19T10:43:02;100044.38;;;21.24;57.34
30598;BME280;17365;48.878;8.334;2023-09-19T10:45:30;100044.56;;;21.41;58.14
30598;BME280;17365;48.878;8.334;2023-09-19T10:47:57;100038.28;;;21.44;58.05
30598;BME280;17365;48.878;8.334;2023-09-19T10:50:22;100045.84;;;21.51;57.20
30598;BME280;17365;48.878;8.334;2023-09-19T10:52:48;100044.59;;;21.60;57.15
30598;BME280;17365;48.878;8.334;2023-09-19T10:55:18;100045.19;;;22.04;57.11
30598;BME280;17365;48.878;8.334;2023-09-19T10:57:45;100044.66;;;21.59;56.60
30598;BME280;17365;48.878;8.334;2023-09-19T11:00:11;100039.47;;;21.76;56.73
30598;BME280;17365;48.878;8.334;2023-09-19T11:05:34;100042.94;;;22.34;54.54
30598;BME280;17365;48.878;8.334;2023-09-19T11:07:59;100033.06;;;21.82;55.10
30598;BME280;17365;48.878;8.334;2023-09-19T11:10:45;100029.84;;;21.75;55.99
30598;BME280;17365;48.878;8.334;2023-09-19T11:13:23;100039.22;;;21.62;56.92
30598;BME280;17365;48.878;8.334;2023-09-19T11:19:08;100038.31;;;21.63;55.71
30598;BME280;17365;48.878;8.334;2023-09-19T11:26:47;100014.59;;;22.00;55.75
30598;BME280;17365;48.878;8.334;2023-09-19T11:29:25;100018.09;;;22.20;56.55
30598;BME280;17365;48.878;8.334;2023-09-19T11:31:51;100019.94;;;21.99;57.36
30598;BME280;17365;48.878;8.334;2023-09-19T11:37:00;100012.91;;;22.54;55.00
30598;BME280;17365;48.878;8.334;2023-09-19T11:39:28;100006.63;;;22.38;54.82
30598;BME280;17365;48.878;8.334;2023-09-19T11:41:54;100005.53;;;22.25;54.51
30598;BME280;17365;48.878;8.334;2023-09-19T11:44:31;100009.84;;;22.08;53.97
30598;BME280;17365;48.878;8.334;2023-09-19T11:46:56;100002.78;;;22.45;54.19
30598;BME280;17365;48.878;8.334;2023-09-19T11:49:28;100005.03;;;22.53;54.05
30598;BME280;17365;48.878;8.334;2023-09-19T11:51:55;99998.16;;;22.85;51.89
30598;BME280;17365;48.878;8.334;2023-09-19T11:54:20;99996.66;;;22.62;51.32
30598;BME280;17365;48.878;8.334;2023-09-19T11:56:50;99980.97;;;22.93;52.33
30598;BME280;17365;48.878;8.334;2023-09-19T12:01:53;99983.69;;;23.09;51.21
30598;BME280;17365;48.878;8.334;2023-09-19T12:04:35;99981.41;;;23.19;51.07
30598;BME280;17365;48.878;8.334;2023-09-19T12:07:02;99989.88;;;22.56;50.45
30598;BME280;17365;48.878;8.334;2023-09-19T12:09:29;99978.34;;;22.93;50.03
30598;BME280;17365;48.878;8.334;2023-09-19T12:11:54;99972.56;;;22.85;49.49
30598;BME280;17365;48.878;8.334;2023-09-19T12:14:23;99971.06;;;22.80;50.65
30598;BME280;17365;48.878;8.334;2023-09-19T12:16:57;99963.00;;;22.65;51.12
30598;BME280;17365;48.878;8.334;2023-09-19T12:19:23;99966.44;;;23.02;51.54
30598;BME280;17365;48.878;8.334;2023-09-19T12:21:58;99969.00;;;23.37;50.21
30598;BME280;17365;48.878;8.334;2023-09-19T12:24:24;99971.50;;;22.89;49.27
30598;BME280;17365;48.878;8.334;2023-09-19T12:26:51;99970.41;;;23.11;49.41
30598;BME280;17365;48.878;8.334;2023-09-19T12:31:49;99966.91;;;22.93;50.83
30598;BME280;17365;48.878;8.334;2023-09-19T12:34:21;99961.13;;;22.67;50.38
30598;BME280;17365;48.878;8.334;2023-09-19T12:36:47;99953.66;;;22.58;50.95
30598;BME280;17365;48.878;8.334;2023-09-19T12:39:22;99946.97;;;22.15;51.70
30598;BME280;17365;48.878;8.334;2023-09-19T12:41:50;99946.75;;;22.01;52.62
30598;BME280;17365;48.878;8.334;2023-09-19T12:44:16;99948.69;;;22.16;52.63
30598;BME280;17365;48.878;8.334;2023-09-19T12:46:43;99938.78;;;22.38;52.42
30598;BME280;17365;48.878;8.334;2023-09-19T12:49:18;99946.84;;;22.53;52.38
30598;BME280;17365;48.878;8.334;2023-09-19T12:51:43;99941.84;;;22.65;51.83
30598;BME280;17365;48.878;8.334;2023-09-19T12:54:09;99937.47;;;22.82;51.53
30598;BME280;17365;48.878;8.334;2023-09-19T12:56:41;99931.56;;;22.94;50.84
30598;BME280;17365;48.878;8.334;2023-09-19T12:59:09;99927.72;;;23.17;50.61
30598;BME280;17365;48.878;8.334;2023-09-19T13:01:38;99933.75;;;22.69;50.26
30598;BME280;17365;48.878;8.334;2023-09-19T13:04:21;99927.03;;;22.61;50.56
30598;BME280;17365;48.878;8.334;2023-09-19T13:06:54;99931.09;;;22.69;49.98
30598;BME280;17365;48.878;8.334;2023-09-19T13:09:21;99922.88;;;22.92;49.81
30598;BME280;17365;48.878;8.334;2023-09-19T13:11:46;99922.06;;;23.07;49.23
30598;BME280;17365;48.878;8.334;2023-09-19T13:22:05;99916.38;;;23.31;48.62
30598;BME280;17365;48.878;8.334;2023-09-19T13:24:30;99916.44;;;23.46;48.31
30598;BME280;17365;48.878;8.334;2023-09-19T13:26:58;99920.69;;;23.49;47.41
30598;BME280;17365;48.878;8.334;2023-09-19T13:29:25;99918.38;;;23.10;47.78
30598;BME280;17365;48.878;8.334;2023-09-19T13:31:50;99914.94;;;23.41;47.42
30598;BME280;17365;48.878;8.334;2023-09-19T13:34:17;99908.56;;;23.45;47.58
30598;BME280;17365;48.878;8.334;2023-09-19T13:36:43;99906.34;;;23.53;47.35